Flight Track Log - Related Links

Times and Time Zones

All times are in EDT time to prevent confusion due to time zone crossing. See the DLH917 flight status page for this flight to view local times or setup timezone preferences in your user account.

Time Position Orientation Groundspeed Altitude Reporting Facility
EDT Latitude Longitude Course Direction KTS MPH feet Rate Location/Type
Sun 02:15:00 PM 51.4277 -0.0473 101° East  Level Estimated
Sun 02:16:00 PM 51.4107 0.0905 101° East  Level Estimated
Sun 02:17:00 PM 51.3936 0.2283 101° East  Level Estimated
Sun 02:18:00 PM 51.3764 0.3659 101° East  Level Estimated
Sun 02:19:00 PM 51.3589 0.5034 101° East  Level Estimated
Sun 02:20:00 PM 51.3413 0.6409 102° East  Level Estimated
Sun 02:21:00 PM 51.3236 0.7782 102° East  Level Estimated
Sun 02:22:00 PM 51.3057 0.9154 102° East  Level Estimated
Sun 02:23:00 PM 51.2876 1.0525 102° East  Level Estimated
Sun 02:24:00 PM 51.2694 1.1895 102° East  Level Estimated
Sun 02:25:00 PM 51.2510 1.3263 102° East  Level Estimated
Sun 02:26:00 PM 51.2324 1.4631 102° East  Level Estimated
Sun 02:27:00 PM 51.2137 1.5998 102° East  Level Estimated
Sun 02:28:00 PM 51.1949 1.7363 102° East  Level Estimated
Sun 02:29:00 PM 51.1758 1.8728 102° East  Level Estimated
Sun 02:30:00 PM 51.1567 2.0091 103° East  Level Estimated
Sun 02:31:00 PM 51.1373 2.1453 103° East  Level Estimated
Sun 02:32:00 PM 51.1178 2.2814 103° East  Level Estimated
Sun 02:33:00 PM 51.0982 2.4174 103° East  Level Estimated
Sun 02:34:00 PM 51.0784 2.5532 103° East  Level Estimated
Sun 02:35:00 PM 51.0584 2.6890 103° East  Level Estimated
Sun 02:36:00 PM 51.0383 2.8246 103° East  Level Estimated
Sun 02:37:00 PM 51.0180 2.9601 103° East  Level Estimated
Sun 02:38:00 PM 50.9975 3.0955 103° East  Level Estimated
Sun 02:39:00 PM 50.9769 3.2308 104° East  Level Estimated
Sun 02:40:00 PM 50.9562 3.3659 104° East  Level Estimated
Sun 02:41:00 PM 50.9353 3.5010 104° East  Level Estimated
Sun 02:42:00 PM 50.9142 3.6359 104° East  Level Estimated
Sun 02:43:00 PM 50.8930 3.7707 104° East  Level Estimated
Sun 02:44:00 PM 50.8716 3.9053 104° East  Level Estimated
Sun 02:45:00 PM 50.8501 4.0399 104° East  Level Estimated
Sun 02:46:00 PM 50.8284 4.1743 104° East  Level Estimated
Sun 02:47:00 PM 50.8066 4.3086 104° East  Level Estimated
Sun 02:48:00 PM 50.7846 4.4427 104° East  Level Estimated
Sun 02:49:00 PM 50.7624 4.5768 105° East  Level Estimated
Sun 02:50:00 PM 50.7401 4.7107 105° East  Level Estimated
Sun 02:51:00 PM 50.7177 4.8445 105° East  Level Estimated
Sun 02:52:00 PM 50.6951 4.9781 105° East  Level Estimated
Sun 02:53:00 PM 50.6723 5.1116 105° East  Level Estimated
Sun 02:54:00 PM 50.6494 5.2450 105° East  Level Estimated
Sun 02:55:00 PM 50.6245 5.3890 105° East  Level Estimated
Sun 02:56:00 PM 50.5993 5.5329 105° East  Level Estimated
Sun 02:57:00 PM 50.5741 5.6766 105° East  Level Estimated
Sun 02:58:00 PM 50.5486 5.8201 106° East  Level Estimated
Sun 02:59:00 PM 50.5230 5.9635 106° East  Level Estimated
Sun 03:00:00 PM 50.4972 6.1067 106° East  Level Estimated
Sun 03:01:00 PM 50.4712 6.2498 106° East  Level Estimated
Sun 03:02:00 PM 50.4450 6.3927 106° East  Level Estimated
Sun 03:03:00 PM 50.4187 6.5355 106° East  Level Estimated
Sun 03:04:00 PM 50.3922 6.6781 106° East  Level Estimated
Sun 03:05:00 PM 50.3655 6.8205 106° East  Level Estimated
Sun 03:06:00 PM 50.3386 6.9628 106° East  Level Estimated
Sun 03:07:00 PM 50.3116 7.1049 107° East  Level Estimated
Sun 03:08:00 PM 50.2844 7.2469 107° East  Level Estimated
Sun 03:09:00 PM 50.2570 7.3887 107° East  Level Estimated
Sun 03:10:00 PM 50.2294 7.5303 107° East  Level Estimated
Sun 03:11:00 PM 50.2017 7.6718 107° East  Level Estimated
Sun 03:12:00 PM 50.1738 7.8131 107° East  Level Estimated
Sun 03:13:00 PM 50.1457 7.9542 107° East  Level Estimated
Sun 03:14:00 PM 50.1175 8.0952 107° East  Level Estimated
Sun 03:15:00 PM 50.0891 8.2360 107° East  Level Estimated
Sun 03:16:00 PM 50.0605 8.3766 108° East  Level Estimated
Sun 03:17:00 PM 50.0318 8.5171 108° East  Level Estimated
Sun 03:18:00 PM 50.0264 8.5431 108° East  Level Estimated
Sun 03:19:00 PM 50.0264 8.5431 73° East  Level Estimated
Sun 03:20:00 PM 50.0264 8.5431 73° East  Level Estimated
Sun 03:21:00 PM 50.0264 8.5431 73° East  Level Estimated
Sun 03:22:00 PM 50.0264 8.5431 73° East  Level Estimated
Sun 03:23:00 PM 50.0264 8.5431 73° East  Level Estimated
Sun 03:24:00 PM 50.0264 8.5431 73° East  Level Estimated
Sun 03:25:00 PM 50.0264 8.5431 73° East  Level Estimated

Login

Don't have an account? Register now (free) for customized features, flight alerts, and more!